Plovdiv, Bulgaria
Current Conditions -  °F | °C
As of 3:00 PM on Wednesday 28 Jan 2015 (Local Time) from LBPD Reporting Station
Overcast Overcast  
Wind Chill: 42°   Ceiling: 6500
Heat Index: 48°   Visibility: 6mi
Dew Point: 34°   Wind: 15mph
Humidity: 57%   Direction: 290°WNW
Pressure: 29.85"   Gusts: NA
Location:  42.15°N, 24.75°E
Report Text: LBPD 281200Z 29013KT 9999 OVC065 09/01 Q1011 NOSIG
Loading
Personal Weather Stations






























Interactive Weather Map New forecast layout! Learn more

10-Day Weather Forecast

Advertisements
Track Severe Weather on mobile